Terminal Aerodrome Forecast
Issued by NWS

Home | Current Version | Previous Version | Text Only | Print | Product List | Glossary On
Versions: 1 2 3 4 5 6 7 8 9 10 11 12 13 14 15 16
694
FTUS44 KOHX 141731 CCA
TAFCKV
TAF COR
KCKV 141731Z 1418/1518 15010KT 2SM -SN BR SCT015 OVC021
      TEMPO 1418/1422 1SM -SN OVC007
     FM150200 16007KT 3SM -RA BR OVC007=

USA.gov is the U.S. government's official web portal to all federal, state and local government web resources and services.